Time;durP1;ratioP1;P1;durP2;ratioP2;P2;SDS_P1;SDS_P2;PMS_P1;PMS_P2;Temp;Humidity;BMP_temperature;BMP_pressure;BME280_temperature;BME280_humidity;BME280_pressure;Samples;Min_cycle;Max_cycle;Signal;HPM_P1;HPM_P2
2022/07/16 00:03:35;;;;;;;;;;;17.00;87.10;;;;;;5036416;28;19984;-51
2022/07/16 00:06:19;;;;;;;;;;;17.00;87.30;;;;;;5023932;28;19920;-53
2022/07/16 00:09:04;;;;;;;;;;;17.00;87.10;;;;;;5044627;28;19916;-53
2022/07/16 00:11:48;;;;;;;;;;;17.10;87.50;;;;;;5044056;28;19952;-49
2022/07/16 00:14:32;;;;;;;;;;;17.10;87.90;;;;;;5035745;28;20413;-49
2022/07/16 00:17:17;;;;;;;;;;;17.10;87.90;;;;;;5039154;28;20007;-47
2022/07/16 00:20:01;;;;;;;;;;;17.10;87.80;;;;;;5052966;28;19963;-52
2022/07/16 00:22:45;;;;;;;;;;;17.10;87.40;;;;;;5054874;28;19958;-54
2022/07/16 00:25:29;;;;;;;;;;;17.10;87.30;;;;;;5055017;28;20418;-53
2022/07/16 00:28:14;;;;;;;;;;;17.10;87.10;;;;;;5053804;28;19993;-58
2022/07/16 00:30:58;;;;;;;;;;;17.10;87.50;;;;;;5054648;28;19939;-53
2022/07/16 00:33:42;;;;;;;;;;;17.10;87.10;;;;;;5054764;28;19963;-52
2022/07/16 00:36:26;;;;;;;;;;;16.90;86.90;;;;;;5054467;28;19916;-57
2022/07/16 00:39:10;;;;;;;;;;;16.90;87.50;;;;;;5039520;28;19916;-54
2022/07/16 00:41:55;;;;;;;;;;;16.90;86.80;;;;;;5053881;28;20323;-50
2022/07/16 00:44:39;;;;;;;;;;;16.80;86.40;;;;;;5024132;28;19916;-54
2022/07/16 00:47:23;;;;;;;;;;;16.80;86.20;;;;;;5034330;28;19920;-50
2022/07/16 00:50:07;;;;;;;;;;;16.70;86.80;;;;;;5034811;28;19916;-52
2022/07/16 00:52:51;;;;;;;;;;;16.70;87.00;;;;;;5034206;28;20031;-54
2022/07/16 00:55:36;;;;;;;;;;;16.40;88.40;;;;;;5034221;28;20001;-50
2022/07/16 00:58:20;;;;;;;;;;;16.20;88.40;;;;;;5033626;28;20011;-51
2022/07/16 01:01:04;;;;;;;;;;;16.00;89.00;;;;;;5033946;28;20024;-49
2022/07/16 01:03:50;;;;;;;;;;;15.90;89.50;;;;;;5033749;28;20361;-53
2022/07/16 01:06:34;;;;;;;;;;;15.80;89.50;;;;;;5034216;28;19958;-49
2022/07/16 01:09:20;;;;;;;;;;;15.90;89.40;;;;;;5019042;28;20387;-52
2022/07/16 01:12:04;;;;;;;;;;;15.80;89.90;;;;;;5034146;28;19912;-50
2022/07/16 01:14:49;;;;;;;;;;;15.80;90.10;;;;;;5033999;28;20371;-54
2022/07/16 01:17:33;;;;;;;;;;;15.80;90.20;;;;;;5040453;28;19930;-53
2022/07/16 01:20:17;;;;;;;;;;;15.80;90.10;;;;;;5033994;28;19912;-51
2022/07/16 01:23:02;;;;;;;;;;;15.70;90.20;;;;;;5033498;28;19940;-52
2022/07/16 01:25:46;;;;;;;;;;;15.80;90.20;;;;;;5033241;28;19977;-54
2022/07/16 01:28:30;;;;;;;;;;;15.80;90.30;;;;;;5032578;28;20003;-51
2022/07/16 01:31:14;;;;;;;;;;;15.80;90.20;;;;;;5033521;28;20288;-53
2022/07/16 01:37:03;;;;;;;;;;;15.60;90.50;;;;;;5033117;28;19931;-53
2022/07/16 01:39:47;;;;;;;;;;;15.50;90.80;;;;;;5033416;28;19919;-53
2022/07/16 01:42:31;;;;;;;;;;;15.50;90.80;;;;;;5033163;28;19929;-53
2022/07/16 01:45:16;;;;;;;;;;;15.50;91.00;;;;;;5033182;28;19932;-52
2022/07/16 01:48:00;;;;;;;;;;;15.50;90.80;;;;;;5033267;28;19976;-53
2022/07/16 01:50:44;;;;;;;;;;;15.60;90.70;;;;;;5032758;28;19994;-53
2022/07/16 01:53:29;;;;;;;;;;;15.60;90.90;;;;;;5033751;28;19975;-56
2022/07/16 01:56:13;;;;;;;;;;;15.60;90.60;;;;;;5033944;28;19912;-52
2022/07/16 01:58:57;;;;;;;;;;;15.60;90.70;;;;;;5033140;28;19916;-53
2022/07/16 02:01:41;;;;;;;;;;;15.60;90.70;;;;;;5032788;28;20284;-53
2022/07/16 02:04:25;;;;;;;;;;;15.70;90.70;;;;;;5033536;28;19947;-53
2022/07/16 02:07:10;;;;;;;;;;;15.70;90.60;;;;;;5033726;28;19915;-53
2022/07/16 02:09:54;;;;;;;;;;;15.60;90.70;;;;;;5033652;28;19912;-48
2022/07/16 02:12:38;;;;;;;;;;;15.60;90.70;;;;;;5032607;28;19920;-51
2022/07/16 02:15:22;;;;;;;;;;;15.40;90.90;;;;;;5032412;28;19912;-53
2022/07/16 02:18:06;;;;;;;;;;;15.40;90.80;;;;;;5039574;28;19928;-52
2022/07/16 02:20:51;;;;;;;;;;;15.30;91.00;;;;;;5032398;28;19976;-50
2022/07/16 02:23:36;;;;;;;;;;;15.20;91.10;;;;;;5032673;28;20383;-53
2022/07/16 02:26:20;;;;;;;;;;;15.20;91.20;;;;;;5032968;28;20415;-55
2022/07/16 02:29:04;;;;;;;;;;;15.20;91.30;;;;;;5032210;28;19923;-53
2022/07/16 02:31:49;;;;;;;;;;;15.30;91.00;;;;;;5017341;28;20426;-52
2022/07/16 02:34:33;;;;;;;;;;;15.30;90.90;;;;;;5032521;28;19931;-54
2022/07/16 02:37:17;;;;;;;;;;;15.20;91.00;;;;;;5032548;28;19920;-51
2022/07/16 02:40:01;;;;;;;;;;;15.20;91.10;;;;;;5032221;28;20001;-54
2022/07/16 02:42:45;;;;;;;;;;;15.10;91.20;;;;;;5032639;28;19924;-53
2022/07/16 02:45:30;;;;;;;;;;;15.10;91.30;;;;;;5052315;28;20287;-49
2022/07/16 02:48:14;;;;;;;;;;;15.00;91.30;;;;;;5052277;28;19916;-49
2022/07/16 02:50:58;;;;;;;;;;;15.10;91.40;;;;;;5037570;28;20095;-52
2022/07/16 02:53:43;;;;;;;;;;;15.10;91.20;;;;;;5052428;28;20372;-53
2022/07/16 02:56:27;;;;;;;;;;;15.10;91.50;;;;;;5052392;28;20291;-55
2022/07/16 02:59:11;;;;;;;;;;;15.00;91.40;;;;;;5052545;28;19916;-49
2022/07/16 03:01:56;;;;;;;;;;;14.90;91.70;;;;;;5052391;28;19927;-55
2022/07/16 03:04:40;;;;;;;;;;;15.00;91.50;;;;;;5055023;28;20410;-54
2022/07/16 03:07:24;;;;;;;;;;;15.00;91.60;;;;;;5056455;28;19919;-50
2022/07/16 03:10:10;;;;;;;;;;;15.00;91.60;;;;;;5055719;28;19916;-49
2022/07/16 03:12:54;;;;;;;;;;;15.10;91.40;;;;;;5056920;28;19911;-51
2022/07/16 03:15:38;;;;;;;;;;;15.20;91.60;;;;;;5059305;28;19927;-50
2022/07/16 03:18:22;;;;;;;;;;;15.30;91.30;;;;;;5057650;28;19915;-54
2022/07/16 03:21:07;;;;;;;;;;;15.20;91.20;;;;;;5041260;28;20003;-50
2022/07/16 03:23:51;;;;;;;;;;;15.30;90.90;;;;;;5036639;28;20369;-48
2022/07/16 03:26:35;;;;;;;;;;;15.30;91.00;;;;;;5035968;28;20009;-49
2022/07/16 03:29:19;;;;;;;;;;;15.30;90.90;;;;;;5020571;28;19932;-51
2022/07/16 03:32:03;;;;;;;;;;;15.20;91.00;;;;;;5020651;28;19915;-48
2022/07/16 03:34:47;;;;;;;;;;;15.30;91.10;;;;;;5036229;28;19913;-48
2022/07/16 03:37:32;;;;;;;;;;;15.30;91.20;;;;;;5021248;28;19920;-51
2022/07/16 03:40:16;;;;;;;;;;;15.20;91.30;;;;;;5035767;28;20008;-50
2022/07/16 03:43:00;;;;;;;;;;;15.20;91.10;;;;;;5037908;28;19916;-48
2022/07/16 03:45:44;;;;;;;;;;;15.30;91.00;;;;;;5055713;28;19916;-52
2022/07/16 03:48:28;;;;;;;;;;;15.30;91.10;;;;;;5055421;28;19974;-53
2022/07/16 03:51:13;;;;;;;;;;;15.20;91.00;;;;;;5055515;28;20264;-50
2022/07/16 03:53:57;;;;;;;;;;;15.20;91.10;;;;;;5055035;28;19915;-49
2022/07/16 03:56:41;;;;;;;;;;;15.20;91.20;;;;;;5055287;28;20160;-51
2022/07/16 03:59:25;;;;;;;;;;;15.20;91.00;;;;;;5055217;28;19931;-53
2022/07/16 04:02:09;;;;;;;;;;;15.20;91.00;;;;;;5055462;28;19916;-56
2022/07/16 04:04:54;;;;;;;;;;;15.20;90.90;;;;;;5054721;28;20383;-53
2022/07/16 04:07:38;;;;;;;;;;;15.10;91.00;;;;;;5055507;28;19920;-53
2022/07/16 04:10:22;;;;;;;;;;;15.20;90.80;;;;;;5055747;28;19963;-51
2022/07/16 04:13:06;;;;;;;;;;;15.20;91.10;;;;;;5056294;28;20375;-51
2022/07/16 04:15:51;;;;;;;;;;;15.20;90.80;;;;;;5055759;28;19951;-53
2022/07/16 04:18:36;;;;;;;;;;;15.20;90.80;;;;;;5053943;28;19912;-48
2022/07/16 04:21:20;;;;;;;;;;;15.20;90.80;;;;;;5040122;28;19927;-52
2022/07/16 04:24:05;;;;;;;;;;;15.20;90.80;;;;;;5055069;28;20383;-51
2022/07/16 04:26:49;;;;;;;;;;;15.10;90.90;;;;;;5054067;28;19935;-51
2022/07/16 04:29:33;;;;;;;;;;;15.20;91.00;;;;;;5054657;28;19919;-50
2022/07/16 04:32:17;;;;;;;;;;;15.20;91.10;;;;;;5054903;28;19931;-49
2022/07/16 04:35:02;;;;;;;;;;;15.20;91.30;;;;;;5055341;28;19967;-52
2022/07/16 04:37:46;;;;;;;;;;;15.30;91.10;;;;;;5039521;28;19974;-56
2022/07/16 04:40:31;;;;;;;;;;;15.30;91.30;;;;;;5054291;28;19916;-50
2022/07/16 04:43:15;;;;;;;;;;;15.20;91.60;;;;;;5050708;28;19916;-54
2022/07/16 04:45:59;;;;;;;;;;;15.30;91.40;;;;;;5034710;28;19983;-56
2022/07/16 04:48:43;;;;;;;;;;;15.40;91.40;;;;;;5033591;28;19920;-58
2022/07/16 04:51:27;;;;;;;;;;;15.50;91.20;;;;;;5034672;28;20316;-51
2022/07/16 04:54:11;;;;;;;;;;;15.50;91.20;;;;;;5035405;28;19955;-54
2022/07/16 04:56:56;;;;;;;;;;;15.70;91.30;;;;;;5034196;28;20111;-49
2022/07/16 04:59:40;;;;;;;;;;;15.70;91.20;;;;;;5034554;28;20315;-48
2022/07/16 05:05:33;;;;;;;;;;;15.90;91.10;;;;;;5035209;28;19916;-50
2022/07/16 05:08:17;;;;;;;;;;;16.10;90.70;;;;;;5034143;28;19972;-49
2022/07/16 05:11:01;;;;;;;;;;;16.00;90.70;;;;;;5036475;28;19916;-58
2022/07/16 05:13:45;;;;;;;;;;;15.80;91.10;;;;;;5034225;28;20204;-57
2022/07/16 05:16:30;;;;;;;;;;;15.80;91.10;;;;;;5034407;28;19955;-54
2022/07/16 05:19:14;;;;;;;;;;;15.90;91.10;;;;;;5039114;28;19915;-56
2022/07/16 05:21:58;;;;;;;;;;;16.00;90.60;;;;;;5054452;28;20280;-55
2022/07/16 05:24:42;;;;;;;;;;;15.80;91.00;;;;;;5053857;28;19911;-50
2022/07/16 05:27:27;;;;;;;;;;;16.00;91.00;;;;;;5053228;28;19932;-56
2022/07/16 05:30:11;;;;;;;;;;;16.10;90.80;;;;;;5038181;28;19975;-56
2022/07/16 05:32:56;;;;;;;;;;;16.20;90.70;;;;;;5054230;28;19915;-57
2022/07/16 05:35:40;;;;;;;;;;;16.20;90.60;;;;;;5053698;28;19916;-58
2022/07/16 05:38:24;;;;;;;;;;;16.30;90.80;;;;;;5052957;28;19963;-56
2022/07/16 05:41:09;;;;;;;;;;;16.30;90.80;;;;;;5038208;28;19915;-52
2022/07/16 05:43:53;;;;;;;;;;;16.40;90.90;;;;;;5044162;28;19992;-55
2022/07/16 05:46:37;;;;;;;;;;;16.40;90.70;;;;;;5033448;28;20009;-53
2022/07/16 05:49:21;;;;;;;;;;;16.50;90.70;;;;;;5032573;28;19920;-57
2022/07/16 05:52:06;;;;;;;;;;;16.70;90.20;;;;;;5033881;28;20040;-57
2022/07/16 05:54:50;;;;;;;;;;;16.80;89.70;;;;;;5017592;28;20078;-52
2022/07/16 05:57:34;;;;;;;;;;;16.80;88.90;;;;;;5032758;28;19928;-56
2022/07/16 06:00:19;;;;;;;;;;;16.80;89.40;;;;;;5017624;28;20379;-57
2022/07/16 06:03:03;;;;;;;;;;;16.70;88.70;;;;;;5032588;28;20446;-55
2022/07/16 06:05:47;;;;;;;;;;;16.80;88.20;;;;;;5032423;28;19929;-55
2022/07/16 06:08:31;;;;;;;;;;;16.90;87.50;;;;;;5032711;28;19924;-54
2022/07/16 06:11:16;;;;;;;;;;;17.00;87.20;;;;;;5032947;28;19912;-56
2022/07/16 06:14:00;;;;;;;;;;;17.00;87.70;;;;;;5032919;28;19978;-56
2022/07/16 06:16:44;;;;;;;;;;;17.10;87.20;;;;;;5032134;28;20268;-56
2022/07/16 06:19:28;;;;;;;;;;;17.20;86.70;;;;;;5038489;28;20291;-59
2022/07/16 06:22:12;;;;;;;;;;;17.30;87.20;;;;;;5037084;28;19916;-55
2022/07/16 06:24:57;;;;;;;;;;;17.50;86.80;;;;;;5052206;28;19915;-57
2022/07/16 06:27:42;;;;;;;;;;;17.60;87.20;;;;;;5052629;28;20410;-59
2022/07/16 06:30:26;;;;;;;;;;;17.80;86.80;;;;;;5051668;28;19924;-59
2022/07/16 06:33:10;;;;;;;;;;;18.00;85.90;;;;;;5052078;28;19916;-58
2022/07/16 06:35:55;;;;;;;;;;;17.90;85.90;;;;;;5052844;28;19912;-56
2022/07/16 06:38:39;;;;;;;;;;;18.00;84.30;;;;;;5040001;28;20494;-57
2022/07/16 06:41:23;;;;;;;;;;;17.70;85.10;;;;;;5056058;28;20004;-53
2022/07/16 06:44:09;;;;;;;;;;;17.70;85.00;;;;;;5045731;28;20236;-54
2022/07/16 06:46:53;;;;;;;;;;;17.60;85.30;;;;;;5037481;28;20217;-57
2022/07/16 06:49:37;;;;;;;;;;;17.60;85.10;;;;;;5036333;28;19992;-57
2022/07/16 06:52:22;;;;;;;;;;;17.50;85.00;;;;;;5036847;28;19993;-58
2022/07/16 06:55:06;;;;;;;;;;;17.60;85.50;;;;;;5036005;28;19917;-58
2022/07/16 06:57:50;;;;;;;;;;;17.60;85.60;;;;;;5021402;28;20284;-57
2022/07/16 07:00:35;;;;;;;;;;;17.40;85.70;;;;;;5036918;28;19919;-57
2022/07/16 07:03:19;;;;;;;;;;;17.50;86.20;;;;;;5036218;28;19920;-55
2022/07/16 07:06:03;;;;;;;;;;;17.50;85.90;;;;;;5035658;28;19955;-56
2022/07/16 07:08:47;;;;;;;;;;;17.80;86.00;;;;;;5035133;28;19946;-58
2022/07/16 07:11:32;;;;;;;;;;;17.90;85.60;;;;;;5036539;28;19963;-55
2022/07/16 07:14:18;;;;;;;;;;;18.00;85.30;;;;;;5036168;28;20040;-56
2022/07/16 07:17:03;;;;;;;;;;;18.20;84.80;;;;;;5020292;28;20278;-56
2022/07/16 07:19:47;;;;;;;;;;;18.20;84.40;;;;;;5035405;28;19967;-57
2022/07/16 07:22:32;;;;;;;;;;;18.30;84.60;;;;;;5035691;28;19920;-56
2022/07/16 07:25:16;;;;;;;;;;;18.30;84.90;;;;;;5035697;28;19975;-56
2022/07/16 07:28:00;;;;;;;;;;;18.30;84.90;;;;;;5020365;28;19920;-56
2022/07/16 07:30:45;;;;;;;;;;;18.20;84.40;;;;;;5035627;28;19967;-55
2022/07/16 07:33:29;;;;;;;;;;;18.10;85.10;;;;;;5035752;28;20073;-55
2022/07/16 07:36:13;;;;;;;;;;;18.10;84.90;;;;;;5035713;28;19959;-56
2022/07/16 07:38:57;;;;;;;;;;;18.30;84.50;;;;;;5036022;28;20379;-54
2022/07/16 07:41:42;;;;;;;;;;;18.40;84.10;;;;;;5035649;28;19978;-50
2022/07/16 07:44:26;;;;;;;;;;;18.40;84.20;;;;;;5048696;28;19912;-57
2022/07/16 07:47:10;;;;;;;;;;;18.40;84.10;;;;;;5055733;28;20004;-52
2022/07/16 07:49:54;;;;;;;;;;;18.30;84.20;;;;;;5054749;28;20023;-57
2022/07/16 07:52:38;;;;;;;;;;;18.20;84.50;;;;;;5054976;28;20011;-52
2022/07/16 07:55:22;;;;;;;;;;;18.10;84.80;;;;;;5054904;28;19939;-56
2022/07/16 07:58:07;;;;;;;;;;;18.10;85.00;;;;;;5054883;28;19916;-58
2022/07/16 08:00:54;;;;;;;;;;;18.20;85.30;;;;;;5054891;28;20018;-54
2022/07/16 08:03:38;;;;;;;;;;;18.30;84.70;;;;;;5039458;28;19954;-57
2022/07/16 08:06:24;;;;;;;;;;;18.20;85.10;;;;;;5055054;28;20036;-57
2022/07/16 08:09:09;;;;;;;;;;;18.30;84.90;;;;;;5054416;28;19950;-54
2022/07/16 08:11:53;;;;;;;;;;;18.30;85.00;;;;;;5055577;28;19964;-54
2022/07/16 08:14:37;;;;;;;;;;;18.20;85.90;;;;;;5055021;28;19911;-55
2022/07/16 08:17:21;;;;;;;;;;;18.20;87.00;;;;;;5045713;28;20007;-56
2022/07/16 08:20:06;;;;;;;;;;;18.20;87.50;;;;;;5034226;28;20345;-55
2022/07/16 08:22:51;;;;;;;;;;;18.10;87.70;;;;;;5034435;28;19967;-57
2022/07/16 08:25:44;;;;;;;;;;;18.20;87.90;;;;;;5033773;28;20475;-57
2022/07/16 08:28:28;;;;;;;;;;;18.20;88.50;;;;;;5033819;28;19963;-56
2022/07/16 08:31:13;;;;;;;;;;;18.20;90.00;;;;;;5034577;28;19920;-59
2022/07/16 08:33:57;;;;;;;;;;;18.00;90.60;;;;;;5034879;28;19916;-58
2022/07/16 08:36:41;;;;;;;;;;;17.90;91.30;;;;;;5034906;28;19915;-54
2022/07/16 08:39:27;;;;;;;;;;;17.70;91.80;;;;;;5035109;28;20440;-56
2022/07/16 08:42:12;;;;;;;;;;;17.60;92.40;;;;;;5034970;28;20000;-58
2022/07/16 08:44:57;;;;;;;;;;;17.40;93.00;;;;;;5052081;28;20314;-58
2022/07/16 08:47:41;;;;;;;;;;;17.40;93.30;;;;;;5053605;28;19974;-58
2022/07/16 08:50:25;;;;;;;;;;;17.30;93.50;;;;;;5054046;28;19920;-56
2022/07/16 08:53:09;;;;;;;;;;;17.40;93.40;;;;;;5053872;28;19957;-57
2022/07/16 08:55:53;;;;;;;;;;;17.20;93.80;;;;;;5053883;28;20336;-57
2022/07/16 08:58:38;;;;;;;;;;;17.30;93.60;;;;;;5054146;28;19920;-57
2022/07/16 09:01:25;;;;;;;;;;;17.30;93.80;;;;;;5052705;28;19962;-54
2022/07/16 09:04:09;;;;;;;;;;;17.50;93.60;;;;;;5053707;28;20339;-55
2022/07/16 09:06:53;;;;;;;;;;;17.70;93.20;;;;;;5054304;28;20411;-57
2022/07/16 09:09:37;;;;;;;;;;;17.80;93.10;;;;;;5038607;28;19974;-57
2022/07/16 09:12:38;;;;;;;;;;;17.60;93.00;;;;;;5053965;28;20047;-56
2022/07/16 09:15:42;;;;;;;;;;;17.70;92.90;;;;;;5054169;28;19950;-57
2022/07/16 09:18:26;;;;;;;;;;;17.80;92.90;;;;;;5036575;28;19963;-56
2022/07/16 09:21:10;;;;;;;;;;;17.80;92.60;;;;;;5033293;28;19948;-54
2022/07/16 09:24:00;;;;;;;;;;;17.80;92.60;;;;;;5104732;27;1996711;-56
2022/07/16 09:26:44;;;;;;;;;;;18.10;92.30;;;;;;5173348;27;19942;-57
2022/07/16 09:29:28;;;;;;;;;;;18.40;92.10;;;;;;5162313;27;19923;-54
2022/07/16 09:32:13;;;;;;;;;;;18.80;91.80;;;;;;5151839;27;20339;-57
2022/07/16 09:35:01;;;;;;;;;;;18.70;91.10;;;;;;5152820;27;20281;-57
2022/07/16 09:37:55;;;;;;;;;;;18.60;90.90;;;;;;5151955;27;20340;-55
2022/07/16 09:40:41;;;;;;;;;;;18.90;90.70;;;;;;5152066;27;19913;-52
2022/07/16 09:43:26;;;;;;;;;;;18.80;90.70;;;;;;5146336;27;19922;-56
2022/07/16 09:46:18;;;;;;;;;;;18.90;90.50;;;;;;5131186;28;20397;-55
2022/07/16 09:49:02;;;;;;;;;;;19.00;90.70;;;;;;5130869;28;19957;-58
2022/07/16 09:51:46;;;;;;;;;;;18.90;90.30;;;;;;5130440;28;19919;-57
2022/07/16 09:54:38;;;;;;;;;;;18.60;90.50;;;;;;5130129;28;19947;-56
2022/07/16 09:57:23;;;;;;;;;;;18.70;90.10;;;;;;5130925;28;19922;-54
2022/07/16 10:00:08;;;;;;;;;;;18.90;88.70;;;;;;5130216;28;19962;-59
2022/07/16 10:02:52;;;;;;;;;;;18.80;86.50;;;;;;5130136;28;19919;-57
2022/07/16 10:05:37;;;;;;;;;;;19.10;83.80;;;;;;5130297;28;20298;-51
2022/07/16 10:08:21;;;;;;;;;;;19.30;84.40;;;;;;5130046;28;19915;-55
2022/07/16 10:11:06;;;;;;;;;;;19.50;83.90;;;;;;5130241;28;19961;-58
2022/07/16 10:13:51;;;;;;;;;;;19.40;81.60;;;;;;5130185;28;19980;-53
2022/07/16 10:16:39;;;;;;;;;;;19.50;80.90;;;;;;5129752;28;20373;-56
2022/07/16 10:19:23;;;;;;;;;;;19.70;80.40;;;;;;5129877;27;19919;-57
2022/07/16 10:22:10;;;;;;;;;;;19.80;81.00;;;;;;5129817;28;19955;-54
2022/07/16 10:24:56;;;;;;;;;;;19.90;78.90;;;;;;5129851;28;19953;-56
2022/07/16 10:27:42;;;;;;;;;;;20.10;77.60;;;;;;5113775;28;20439;-54
2022/07/16 10:30:26;;;;;;;;;;;20.00;77.60;;;;;;5114240;28;20396;-55
2022/07/16 10:33:13;;;;;;;;;;;20.00;76.80;;;;;;5113290;28;20010;-57
2022/07/16 10:36:05;;;;;;;;;;;19.80;77.20;;;;;;5115612;28;19919;-56
2022/07/16 10:39:15;;;;;;;;;;;19.60;77.60;;;;;;5115883;28;19933;-55
2022/07/16 10:42:01;;;;;;;;;;;19.70;78.60;;;;;;5116433;28;19935;-57
2022/07/16 10:44:46;;;;;;;;;;;20.10;77.10;;;;;;5133328;27;20408;-57
2022/07/16 10:47:42;;;;;;;;;;;20.40;74.90;;;;;;5136732;27;19952;-55
2022/07/16 10:50:26;;;;;;;;;;;20.40;74.40;;;;;;5121539;27;19918;-57
2022/07/16 10:53:10;;;;;;;;;;;20.50;74.50;;;;;;5136626;27;19999;-60
2022/07/16 10:55:55;;;;;;;;;;;20.40;74.60;;;;;;5136718;27;19971;-55
2022/07/16 10:58:40;;;;;;;;;;;20.60;74.70;;;;;;5120823;27;19981;-56
2022/07/16 11:01:24;;;;;;;;;;;20.60;72.80;;;;;;5136171;27;19977;-58
2022/07/16 11:04:09;;;;;;;;;;;20.60;72.30;;;;;;5135706;27;19968;-55
2022/07/16 11:06:54;;;;;;;;;;;20.60;71.90;;;;;;5136230;27;19962;-57
2022/07/16 11:09:43;;;;;;;;;;;20.60;72.10;;;;;;5135680;27;19918;-55
2022/07/16 11:12:29;;;;;;;;;;;20.80;71.60;;;;;;5136423;27;19987;-56
2022/07/16 11:15:14;;;;;;;;;;;20.70;71.30;;;;;;5136006;27;19964;-56
2022/07/16 11:17:59;;;;;;;;;;;20.60;72.40;;;;;;5107115;28;19969;-55
2022/07/16 11:20:44;;;;;;;;;;;20.70;70.70;;;;;;5115235;28;20545;-56
2022/07/16 11:23:28;;;;;;;;;;;20.90;71.40;;;;;;5099778;28;20062;-57
2022/07/16 11:26:12;;;;;;;;;;;20.70;71.80;;;;;;5099748;28;19934;-55
2022/07/16 11:29:03;;;;;;;;;;;20.80;70.90;;;;;;5115415;28;20282;-55
2022/07/16 11:31:48;;;;;;;;;;;21.10;70.30;;;;;;5115313;28;20384;-57
2022/07/16 11:34:33;;;;;;;;;;;21.20;68.10;;;;;;5114530;28;20373;-56
2022/07/16 11:37:17;;;;;;;;;;;21.30;68.30;;;;;;5114936;28;20193;-58
2022/07/16 11:40:01;;;;;;;;;;;21.60;68.70;;;;;;5115111;28;20354;-55
2022/07/16 11:42:55;;;;;;;;;;;21.50;69.00;;;;;;5114719;28;20365;-58
2022/07/16 11:45:43;;;;;;;;;;;21.30;68.40;;;;;;5078384;28;20419;-54
2022/07/16 11:48:37;;;;;;;;;;;21.30;69.00;;;;;;5095502;28;19953;-56
2022/07/16 11:51:21;;;;;;;;;;;21.50;68.40;;;;;;5094754;28;20023;-57
2022/07/16 11:54:06;;;;;;;;;;;21.20;68.90;;;;;;5094582;28;19915;-56
2022/07/16 11:56:51;;;;;;;;;;;21.40;69.20;;;;;;5094479;28;19970;-57
2022/07/16 11:59:40;;;;;;;;;;;21.50;69.10;;;;;;5094534;28;19916;-55
2022/07/16 12:02:27;;;;;;;;;;;21.60;68.10;;;;;;5094280;28;19923;-58
2022/07/16 12:05:11;;;;;;;;;;;21.50;67.60;;;;;;5094482;28;19954;-55
2022/07/16 12:07:55;;;;;;;;;;;21.40;68.60;;;;;;5094049;28;19934;-55
2022/07/16 12:10:39;;;;;;;;;;;21.50;67.70;;;;;;5094391;28;19915;-55
2022/07/16 12:13:24;;;;;;;;;;;21.60;67.50;;;;;;5093888;28;19935;-56
2022/07/16 12:16:09;;;;;;;;;;;21.50;68.20;;;;;;5093678;28;19965;-56
2022/07/16 12:19:16;;;;;;;;;;;21.40;69.40;;;;;;5113337;28;19919;-55
2022/07/16 12:22:00;;;;;;;;;;;21.30;71.20;;;;;;5114291;28;19942;-57
2022/07/16 12:24:44;;;;;;;;;;;21.30;71.30;;;;;;5114731;28;19930;-56
2022/07/16 12:27:42;;;;;;;;;;;21.60;71.00;;;;;;5114012;28;19918;-57
2022/07/16 12:30:45;;;;;;;;;;;21.50;71.10;;;;;;5113981;28;20308;-57
2022/07/16 12:33:30;;;;;;;;;;;21.60;71.20;;;;;;5114802;28;19915;-57
2022/07/16 12:36:15;;;;;;;;;;;21.70;70.50;;;;;;5114055;28;19915;-56
2022/07/16 12:39:03;;;;;;;;;;;21.60;70.40;;;;;;5113542;28;19919;-54
2022/07/16 12:41:48;;;;;;;;;;;21.50;70.20;;;;;;5114364;28;20385;-55
2022/07/16 12:44:32;;;;;;;;;;;21.40;69.10;;;;;;5113249;27;19964;-53
2022/07/16 12:47:16;;;;;;;;;;;21.50;68.30;;;;;;5120701;27;19934;-53
2022/07/16 12:50:00;;;;;;;;;;;21.50;68.80;;;;;;5135241;27;19933;-55
2022/07/16 12:52:45;;;;;;;;;;;21.60;68.80;;;;;;5134831;27;19940;-55
2022/07/16 12:58:48;;;;;;;;;;;22.30;67.00;;;;;;5138374;27;19919;-52
2022/07/16 13:01:32;;;;;;;;;;;22.40;66.80;;;;;;5121784;27;20035;-53
2022/07/16 13:04:17;;;;;;;;;;;22.40;66.20;;;;;;5134338;27;19918;-54
2022/07/16 13:07:01;;;;;;;;;;;22.40;64.60;;;;;;5133689;27;20002;-55
2022/07/16 13:09:45;;;;;;;;;;;22.40;64.20;;;;;;5134377;27;19941;-55
2022/07/16 13:12:30;;;;;;;;;;;22.70;63.80;;;;;;5119060;27;19918;-57
2022/07/16 13:15:16;;;;;;;;;;;22.80;62.70;;;;;;5134552;27;20392;-56
2022/07/16 13:18:00;;;;;;;;;;;22.90;62.70;;;;;;5119728;27;19934;-53
2022/07/16 13:20:44;;;;;;;;;;;22.80;63.10;;;;;;5113025;28;19923;-58
2022/07/16 13:23:29;;;;;;;;;;;22.30;65.00;;;;;;5113073;28;19926;-57
2022/07/16 13:26:13;;;;;;;;;;;22.00;65.80;;;;;;5113171;28;19976;-56
2022/07/16 13:28:57;;;;;;;;;;;21.90;67.10;;;;;;5113267;28;19965;-56
2022/07/16 13:31:41;;;;;;;;;;;22.30;66.90;;;;;;5112904;28;19972;-57
2022/07/16 13:34:26;;;;;;;;;;;22.60;67.20;;;;;;5113356;28;20022;-57
2022/07/16 13:37:10;;;;;;;;;;;22.80;66.80;;;;;;5113156;28;19921;-56
2022/07/16 13:39:54;;;;;;;;;;;22.60;67.00;;;;;;5098836;28;19965;-58
2022/07/16 13:42:38;;;;;;;;;;;22.60;65.90;;;;;;5113467;28;20024;-56
2022/07/16 13:45:22;;;;;;;;;;;22.60;65.60;;;;;;5093407;28;19919;-57
2022/07/16 13:48:07;;;;;;;;;;;22.80;66.10;;;;;;5093764;28;19953;-58
2022/07/16 13:50:51;;;;;;;;;;;22.80;64.20;;;;;;5077306;28;19938;-58
2022/07/16 13:53:35;;;;;;;;;;;22.90;65.30;;;;;;5093062;28;19911;-59
2022/07/16 13:56:19;;;;;;;;;;;23.20;65.90;;;;;;5094173;28;19919;-58
2022/07/16 13:59:03;;;;;;;;;;;23.30;64.20;;;;;;5093156;28;19915;-56
2022/07/16 14:01:48;;;;;;;;;;;23.30;64.10;;;;;;5092991;28;20022;-55
2022/07/16 14:04:32;;;;;;;;;;;23.10;63.10;;;;;;5092450;28;19954;-54
2022/07/16 14:07:16;;;;;;;;;;;23.60;62.90;;;;;;5077733;28;19999;-56
2022/07/16 14:10:00;;;;;;;;;;;23.80;62.00;;;;;;5095646;28;20049;-54
2022/07/16 14:12:45;;;;;;;;;;;24.10;61.40;;;;;;5096587;28;20349;-56
2022/07/16 14:15:33;;;;;;;;;;;23.70;61.80;;;;;;5096765;28;19961;-56
2022/07/16 14:18:17;;;;;;;;;;;23.30;62.50;;;;;;5111870;28;20373;-55
2022/07/16 14:21:01;;;;;;;;;;;23.30;63.10;;;;;;5116376;28;19915;-58
2022/07/16 14:23:46;;;;;;;;;;;23.30;62.20;;;;;;5100618;28;19980;-57
2022/07/16 14:26:30;;;;;;;;;;;23.40;61.30;;;;;;5116794;28;19919;-57
2022/07/16 14:29:14;;;;;;;;;;;23.30;61.60;;;;;;5117186;28;19973;-56
2022/07/16 14:31:58;;;;;;;;;;;23.50;61.10;;;;;;5117157;28;20015;-52
2022/07/16 14:34:43;;;;;;;;;;;23.30;61.40;;;;;;5116670;28;19918;-55
2022/07/16 14:37:27;;;;;;;;;;;23.50;60.20;;;;;;5116852;28;19954;-55
2022/07/16 14:40:14;;;;;;;;;;;23.50;60.40;;;;;;5117090;28;20420;-56
2022/07/16 14:42:58;;;;;;;;;;;23.80;59.60;;;;;;5117748;27;20408;-56
2022/07/16 14:45:43;;;;;;;;;;;23.80;58.40;;;;;;5137370;27;19919;-57
2022/07/16 14:48:27;;;;;;;;;;;23.70;58.90;;;;;;5121258;27;19923;-56
2022/07/16 14:51:11;;;;;;;;;;;23.60;58.90;;;;;;5137114;27;20415;-52
2022/07/16 14:53:56;;;;;;;;;;;23.80;58.80;;;;;;5136532;27;19970;-57
2022/07/16 14:56:40;;;;;;;;;;;24.10;58.80;;;;;;5106414;27;19953;-53
2022/07/16 14:59:24;;;;;;;;;;;23.90;57.70;;;;;;5136987;27;19918;-55
2022/07/16 15:02:08;;;;;;;;;;;23.60;58.00;;;;;;5120632;27;19933;-55
2022/07/16 15:04:53;;;;;;;;;;;23.50;58.10;;;;;;5120685;27;19918;-55
2022/07/16 15:07:37;;;;;;;;;;;23.50;57.80;;;;;;5120986;27;19914;-57
2022/07/16 15:10:21;;;;;;;;;;;23.50;57.20;;;;;;5136984;27;19958;-56
2022/07/16 15:13:05;;;;;;;;;;;23.60;57.00;;;;;;5136523;27;20383;-55
2022/07/16 15:15:49;;;;;;;;;;;23.70;54.70;;;;;;5136753;27;19972;-56
2022/07/16 15:18:34;;;;;;;;;;;23.50;54.50;;;;;;5101328;28;20278;-56
2022/07/16 15:21:18;;;;;;;;;;;23.40;55.00;;;;;;5115355;28;19918;-56
2022/07/16 15:24:03;;;;;;;;;;;23.50;55.70;;;;;;5098979;28;20270;-57
2022/07/16 15:26:47;;;;;;;;;;;24.10;54.30;;;;;;5099302;28;20415;-56
2022/07/16 15:29:31;;;;;;;;;;;23.90;54.60;;;;;;5115048;28;19927;-58
2022/07/16 15:32:15;;;;;;;;;;;24.00;54.50;;;;;;5108008;28;19934;-54
2022/07/16 15:35:00;;;;;;;;;;;23.70;54.90;;;;;;5115464;28;20419;-56
2022/07/16 15:37:44;;;;;;;;;;;23.50;54.40;;;;;;5114834;28;19923;-56
2022/07/16 15:40:28;;;;;;;;;;;23.50;55.10;;;;;;5114749;28;19923;-54
2022/07/16 15:43:12;;;;;;;;;;;23.70;54.90;;;;;;5118290;27;20429;-56
2022/07/16 15:45:57;;;;;;;;;;;23.40;55.20;;;;;;5136022;27;19957;-55
2022/07/16 15:48:41;;;;;;;;;;;23.70;54.80;;;;;;5134945;27;19915;-56
2022/07/16 15:51:25;;;;;;;;;;;23.90;55.10;;;;;;5135271;27;20052;-56
2022/07/16 15:54:09;;;;;;;;;;;24.10;54.50;;;;;;5135265;27;19933;-55
2022/07/16 15:56:54;;;;;;;;;;;24.10;55.20;;;;;;5134735;27;19918;-55
2022/07/16 15:59:39;;;;;;;;;;;23.80;54.90;;;;;;5134529;27;19958;-53
2022/07/16 16:02:23;;;;;;;;;;;23.80;55.30;;;;;;5135365;27;19981;-58
2022/07/16 16:05:11;;;;;;;;;;;24.10;54.40;;;;;;5135555;27;20344;-55
2022/07/16 16:07:55;;;;;;;;;;;24.10;54.50;;;;;;5138432;27;20428;-55
2022/07/16 16:10:40;;;;;;;;;;;24.00;54.90;;;;;;5138792;27;19933;-51